sensor_id;sensor_type;location;lat;lon;timestamp;pressure;altitude;pressure_sealevel;temperature;humidity
65546;BME280;52177;55.968;37.498;2023-03-26T00:00:05;98355.88;;;5.93;84.89
65546;BME280;52177;55.968;37.498;2023-03-26T00:00:40;98357.53;;;5.95;84.54
65546;BME280;52177;55.968;37.498;2023-03-26T00:01:15;98356.88;;;5.92;84.68
65546;BME280;52177;55.968;37.498;2023-03-26T00:01:46;98366.44;;;5.93;84.60
65546;BME280;52177;55.968;37.498;2023-03-26T00:02:18;98352.41;;;5.93;84.45
65546;BME280;52177;55.968;37.498;2023-03-26T00:02:49;98358.50;;;5.93;84.49
65546;BME280;52177;55.968;37.498;2023-03-26T00:03:19;98360.81;;;5.97;84.29
65546;BME280;52177;55.968;37.498;2023-03-26T00:03:51;98361.84;;;5.96;84.21
65546;BME280;52177;55.968;37.498;2023-03-26T00:04:26;98355.72;;;5.95;84.21
65546;BME280;52177;55.968;37.498;2023-03-26T00:04:57;98362.66;;;5.96;84.29
65546;BME280;52177;55.968;37.498;2023-03-26T00:05:27;98354.72;;;5.96;84.25
65546;BME280;52177;55.968;37.498;2023-03-26T00:06:06;98357.38;;;5.96;84.05
65546;BME280;52177;55.968;37.498;2023-03-26T00:06:37;98357.38;;;5.96;83.97
65546;BME280;52177;55.968;37.498;2023-03-26T00:07:09;98353.22;;;5.93;83.86
65546;BME280;52177;55.968;37.498;2023-03-26T00:07:40;98354.06;;;5.94;83.64
65546;BME280;52177;55.968;37.498;2023-03-26T00:08:10;98355.06;;;5.93;83.46
65546;BME280;52177;55.968;37.498;2023-03-26T00:08:42;98356.03;;;5.92;83.42
65546;BME280;52177;55.968;37.498;2023-03-26T00:09:14;98355.88;;;5.93;83.16
65546;BME280;52177;55.968;37.498;2023-03-26T00:09:45;98350.94;;;5.90;83.02
65546;BME280;52177;55.968;37.498;2023-03-26T00:10:15;98352.78;;;5.90;83.03
65546;BME280;52177;55.968;37.498;2023-03-26T00:10:45;98348.47;;;5.89;82.84
65546;BME280;52177;55.968;37.498;2023-03-26T00:11:31;98347.66;;;5.88;82.54
65546;BME280;52177;55.968;37.498;2023-03-26T00:12:01;98352.13;;;5.88;82.79
65546;BME280;52177;55.968;37.498;2023-03-26T00:12:32;98352.13;;;5.88;82.53
65546;BME280;52177;55.968;37.498;2023-03-26T00:13:06;98351.28;;;5.87;82.73
65546;BME280;52177;55.968;37.498;2023-03-26T00:13:36;98354.78;;;5.88;82.62
65546;BME280;52177;55.968;37.498;2023-03-26T00:14:08;98338.91;;;5.88;82.63
65546;BME280;52177;55.968;37.498;2023-03-26T00:14:42;98346.00;;;5.87;82.53
65546;BME280;52177;55.968;37.498;2023-03-26T00:15:12;98347.00;;;5.86;82.39
65546;BME280;52177;55.968;37.498;2023-03-26T00:15:43;98343.56;;;5.86;82.38
65546;BME280;52177;55.968;37.498;2023-03-26T00:16:16;98348.66;;;5.87;82.46
65546;BME280;52177;55.968;37.498;2023-03-26T00:16:47;98353.94;;;5.87;82.50
65546;BME280;52177;55.968;37.498;2023-03-26T00:17:18;98351.28;;;5.87;82.63
65546;BME280;52177;55.968;37.498;2023-03-26T00:17:48;98353.94;;;5.87;82.71
65546;BME280;52177;55.968;37.498;2023-03-26T00:18:19;98359.22;;;5.87;82.57
65546;BME280;52177;55.968;37.498;2023-03-26T00:18:51;98348.03;;;5.85;82.62
65546;BME280;52177;55.968;37.498;2023-03-26T00:19:22;98356.56;;;5.87;82.66
65546;BME280;52177;55.968;37.498;2023-03-26T00:19:52;98353.31;;;5.85;82.72
65546;BME280;52177;55.968;37.498;2023-03-26T00:20:23;98350.84;;;5.84;82.74
65546;BME280;52177;55.968;37.498;2023-03-26T00:21:00;98348.19;;;5.84;82.75
65546;BME280;52177;55.968;37.498;2023-03-26T00:21:31;98357.13;;;5.83;82.86
65546;BME280;52177;55.968;37.498;2023-03-26T00:22:01;98346.91;;;5.80;82.69
65546;BME280;52177;55.968;37.498;2023-03-26T00:22:32;98356.66;;;5.79;82.89
65546;BME280;52177;55.968;37.498;2023-03-26T00:23:03;98348.09;;;5.77;82.86
65546;BME280;52177;55.968;37.498;2023-03-26T00:23:34;98342.78;;;5.77;82.94
65546;BME280;52177;55.968;37.498;2023-03-26T00:24:08;98353.22;;;5.79;82.85
65546;BME280;52177;55.968;37.498;2023-03-26T00:24:39;98351.75;;;5.76;83.02
65546;BME280;52177;55.968;37.498;2023-03-26T00:25:09;98341.16;;;5.76;83.14
65546;BME280;52177;55.968;37.498;2023-03-26T00:25:40;98347.28;;;5.77;82.86
65546;BME280;52177;55.968;37.498;2023-03-26T00:26:12;98346.47;;;5.76;83.06
65546;BME280;52177;55.968;37.498;2023-03-26T00:26:43;98351.75;;;5.76;82.82
65546;BME280;52177;55.968;37.498;2023-03-26T00:27:13;98346.47;;;5.76;82.75
65546;BME280;52177;55.968;37.498;2023-03-26T00:27:44;98353.53;;;5.76;82.63
65546;BME280;52177;55.968;37.498;2023-03-26T00:28:16;98351.91;;;5.75;82.77
65546;BME280;52177;55.968;37.498;2023-03-26T00:28:46;98348.44;;;5.74;82.65
65546;BME280;52177;55.968;37.498;2023-03-26T00:29:20;98353.91;;;5.72;82.57
65546;BME280;52177;55.968;37.498;2023-03-26T00:29:51;98358.38;;;5.72;82.92
65546;BME280;52177;55.968;37.498;2023-03-26T00:30:25;98358.38;;;5.72;82.97
65546;BME280;52177;55.968;37.498;2023-03-26T00:30:57;98355.75;;;5.72;82.99
65546;BME280;52177;55.968;37.498;2023-03-26T00:31:28;98366.31;;;5.72;83.13
65546;BME280;52177;55.968;37.498;2023-03-26T00:31:59;98360.38;;;5.70;83.18
65546;BME280;52177;55.968;37.498;2023-03-26T00:32:30;98362.38;;;5.68;83.52
65546;BME280;52177;55.968;37.498;2023-03-26T00:33:01;98363.19;;;5.68;83.46
65546;BME280;52177;55.968;37.498;2023-03-26T00:33:32;98354.44;;;5.68;83.89
65546;BME280;52177;55.968;37.498;2023-03-26T00:34:02;98357.09;;;5.68;84.13
65546;BME280;52177;55.968;37.498;2023-03-26T00:34:34;98356.28;;;5.67;84.24
65546;BME280;52177;55.968;37.498;2023-03-26T00:35:05;98356.28;;;5.67;84.51
65546;BME280;52177;55.968;37.498;2023-03-26T00:35:36;98354.59;;;5.66;84.69
65546;BME280;52177;55.968;37.498;2023-03-26T00:36:13;98355.47;;;5.67;84.62
65546;BME280;52177;55.968;37.498;2023-03-26T00:36:45;98351.97;;;5.66;84.80
65546;BME280;52177;55.968;37.498;2023-03-26T00:37:15;98353.78;;;5.66;84.61
65546;BME280;52177;55.968;37.498;2023-03-26T00:37:47;98348.50;;;5.66;84.67
65546;BME280;52177;55.968;37.498;2023-03-26T00:38:21;98348.72;;;5.64;84.44
65546;BME280;52177;55.968;37.498;2023-03-26T00:38:53;98356.44;;;5.66;84.51
65546;BME280;52177;55.968;37.498;2023-03-26T00:39:23;98348.72;;;5.64;84.36
65546;BME280;52177;55.968;37.498;2023-03-26T00:39:55;98342.56;;;5.64;84.18
65546;BME280;52177;55.968;37.498;2023-03-26T00:40:28;98356.63;;;5.64;84.07
65546;BME280;52177;55.968;37.498;2023-03-26T00:40:59;98347.88;;;5.64;83.96
65546;BME280;52177;55.968;37.498;2023-03-26T00:41:35;98344.41;;;5.63;83.95
65546;BME280;52177;55.968;37.498;2023-03-26T00:42:12;98346.22;;;5.63;83.87
65546;BME280;52177;55.968;37.498;2023-03-26T00:42:43;98348.06;;;5.62;83.54
65546;BME280;52177;55.968;37.498;2023-03-26T00:43:14;98345.41;;;5.62;83.76
65546;BME280;52177;55.968;37.498;2023-03-26T00:43:55;98343.75;;;5.61;83.59
65546;BME280;52177;55.968;37.498;2023-03-26T00:44:26;98342.94;;;5.61;83.43
65546;BME280;52177;55.968;37.498;2023-03-26T00:44:56;98344.78;;;5.60;83.55
65546;BME280;52177;55.968;37.498;2023-03-26T00:45:27;98347.41;;;5.60;83.62
65546;BME280;52177;55.968;37.498;2023-03-26T00:45:58;98348.22;;;5.61;83.28
65546;BME280;52177;55.968;37.498;2023-03-26T00:46:30;98340.47;;;5.59;83.28
65546;BME280;52177;55.968;37.498;2023-03-26T00:47:00;98342.28;;;5.59;83.22
65546;BME280;52177;55.968;37.498;2023-03-26T00:47:31;98343.31;;;5.58;83.02
65546;BME280;52177;55.968;37.498;2023-03-26T00:48:01;98344.28;;;5.57;82.83
65546;BME280;52177;55.968;37.498;2023-03-26T00:48:31;98338.19;;;5.56;82.98
65546;BME280;52177;55.968;37.498;2023-03-26T00:49:03;98337.53;;;5.54;82.98
65546;BME280;52177;55.968;37.498;2023-03-26T00:49:34;98339.38;;;5.54;82.93
65546;BME280;52177;55.968;37.498;2023-03-26T00:50:05;98341.19;;;5.53;82.96
65546;BME280;52177;55.968;37.498;2023-03-26T00:50:36;98345.66;;;5.53;82.99
65546;BME280;52177;55.968;37.498;2023-03-26T00:51:08;98349.28;;;5.52;82.96
65546;BME280;52177;55.968;37.498;2023-03-26T00:51:41;98342.53;;;5.49;83.15
65546;BME280;52177;55.968;37.498;2023-03-26T00:52:12;98344.38;;;5.48;82.91
65546;BME280;52177;55.968;37.498;2023-03-26T00:52:44;98343.72;;;5.46;83.00
65546;BME280;52177;55.968;37.498;2023-03-26T00:53:16;98342.91;;;5.46;82.87
65546;BME280;52177;55.968;37.498;2023-03-26T00:53:49;98343.06;;;5.44;82.95
65546;BME280;52177;55.968;37.498;2023-03-26T00:54:19;98337.94;;;5.43;83.13
65546;BME280;52177;55.968;37.498;2023-03-26T00:54:50;98342.41;;;5.42;83.03
65546;BME280;52177;55.968;37.498;2023-03-26T00:55:21;98337.13;;;5.42;82.97
65546;BME280;52177;55.968;37.498;2023-03-26T00:55:52;98345.06;;;5.42;82.84
65546;BME280;52177;55.968;37.498;2023-03-26T00:56:22;98347.72;;;5.42;82.96
65546;BME280;52177;55.968;37.498;2023-03-26T00:56:53;98345.06;;;5.42;82.92
65546;BME280;52177;55.968;37.498;2023-03-26T00:57:25;98345.06;;;5.42;82.97
65546;BME280;52177;55.968;37.498;2023-03-26T00:57:59;98351.38;;;5.41;82.82
65546;BME280;52177;55.968;37.498;2023-03-26T00:58:29;98346.25;;;5.40;82.90
65546;BME280;52177;55.968;37.498;2023-03-26T00:59:00;98352.34;;;5.40;82.78
65546;BME280;52177;55.968;37.498;2023-03-26T00:59:31;98352.53;;;5.39;82.96
65546;BME280;52177;55.968;37.498;2023-03-26T01:00:07;98350.06;;;5.37;82.91
65546;BME280;52177;55.968;37.498;2023-03-26T01:01:02;98353.88;;;5.35;82.89
65546;BME280;52177;55.968;37.498;2023-03-26T01:01:32;98348.13;;;5.31;82.90
65546;BME280;52177;55.968;37.498;2023-03-26T01:02:03;98350.09;;;5.29;82.98
65546;BME280;52177;55.968;37.498;2023-03-26T01:02:33;98352.13;;;5.27;82.99
65546;BME280;52177;55.968;37.498;2023-03-26T01:03:04;98350.47;;;5.26;82.83
65546;BME280;52177;55.968;37.498;2023-03-26T01:03:36;98346.19;;;5.25;83.16
65546;BME280;52177;55.968;37.498;2023-03-26T01:04:57;98344.38;;;5.25;83.12
65546;BME280;52177;55.968;37.498;2023-03-26T01:06:38;98339.91;;;5.26;83.15
65546;BME280;52177;55.968;37.498;2023-03-26T01:07:16;98336.28;;;5.27;83.15
65546;BME280;52177;55.968;37.498;2023-03-26T01:07:50;98343.34;;;5.26;83.02
65546;BME280;52177;55.968;37.498;2023-03-26T01:08:29;98341.72;;;5.25;82.86
65546;BME280;52177;55.968;37.498;2023-03-26T01:09:29;98332.97;;;5.25;82.57
65546;BME280;52177;55.968;37.498;2023-03-26T01:10:02;98341.88;;;5.24;82.50
65546;BME280;52177;55.968;37.498;2023-03-26T01:10:33;98349.00;;;5.23;82.56
65546;BME280;52177;55.968;37.498;2023-03-26T01:11:26;98348.03;;;5.24;82.31
65546;BME280;52177;55.968;37.498;2023-03-26T01:11:59;98346.72;;;5.20;82.11
65546;BME280;52177;55.968;37.498;2023-03-26T01:12:30;98346.72;;;5.20;82.17
65546;BME280;52177;55.968;37.498;2023-03-26T01:13:01;98348.53;;;5.20;81.96
65546;BME280;52177;55.968;37.498;2023-03-26T01:13:37;98344.25;;;5.19;82.21
65546;BME280;52177;55.968;37.498;2023-03-26T01:14:13;98340.78;;;5.18;82.13
65546;BME280;52177;55.968;37.498;2023-03-26T01:14:45;98347.91;;;5.18;82.14
65546;BME280;52177;55.968;37.498;2023-03-26T01:15:16;98346.22;;;5.17;82.21
65546;BME280;52177;55.968;37.498;2023-03-26T01:15:47;98336.84;;;5.14;82.33
65546;BME280;52177;55.968;37.498;2023-03-26T01:16:30;98348.22;;;5.15;82.50
65546;BME280;52177;55.968;37.498;2023-03-26T01:17:05;98338.66;;;5.14;82.53
65546;BME280;52177;55.968;37.498;2023-03-26T01:17:36;98334.38;;;5.13;82.43
65546;BME280;52177;55.968;37.498;2023-03-26T01:18:07;98343.31;;;5.12;82.64
65546;BME280;52177;55.968;37.498;2023-03-26T01:18:38;98339.03;;;5.11;82.42
65546;BME280;52177;55.968;37.498;2023-03-26T01:20:14;98342.84;;;5.08;82.19
65546;BME280;52177;55.968;37.498;2023-03-26T01:20:48;98340.53;;;5.05;82.30
65546;BME280;52177;55.968;37.498;2023-03-26T01:21:22;98339.06;;;5.02;82.35
65546;BME280;52177;55.968;37.498;2023-03-26T01:21:57;98337.44;;;5.01;82.42
65546;BME280;52177;55.968;37.498;2023-03-26T01:22:28;98336.78;;;4.99;82.32
65546;BME280;52177;55.968;37.498;2023-03-26T01:23:01;98337.75;;;4.98;82.38
65546;BME280;52177;55.968;37.498;2023-03-26T01:23:46;98335.13;;;4.98;82.42
65546;BME280;52177;55.968;37.498;2023-03-26T01:24:21;98334.31;;;4.98;82.51
65546;BME280;52177;55.968;37.498;2023-03-26T01:24:52;98336.94;;;4.98;82.53
65546;BME280;52177;55.968;37.498;2023-03-26T01:25:28;98332.69;;;4.97;82.61
65546;BME280;52177;55.968;37.498;2023-03-26T01:26:11;98332.69;;;4.97;82.40
65546;BME280;52177;55.968;37.498;2023-03-26T01:26:55;98336.13;;;4.97;82.50
65546;BME280;52177;55.968;37.498;2023-03-26T01:28:08;98332.84;;;4.95;82.36
65546;BME280;52177;55.968;37.498;2023-03-26T01:28:41;98332.19;;;4.93;82.43
65546;BME280;52177;55.968;37.498;2023-03-26T01:30:06;98328.25;;;4.89;82.14
65546;BME280;52177;55.968;37.498;2023-03-26T01:30:50;98330.25;;;4.87;82.31
65546;BME280;52177;55.968;37.498;2023-03-26T01:31:37;98335.53;;;4.87;82.13
65546;BME280;52177;55.968;37.498;2023-03-26T01:33:30;98330.59;;;4.84;82.02
65546;BME280;52177;55.968;37.498;2023-03-26T01:35:59;98319.22;;;4.83;82.05
65546;BME280;52177;55.968;37.498;2023-03-26T01:37:15;98329.94;;;4.82;81.85
65546;BME280;52177;55.968;37.498;2023-03-26T01:38:54;98327.28;;;4.82;81.98
65546;BME280;52177;55.968;37.498;2023-03-26T01:39:34;98333.59;;;4.81;81.88
65546;BME280;52177;55.968;37.498;2023-03-26T01:40:20;98331.59;;;4.83;82.22
65546;BME280;52177;55.968;37.498;2023-03-26T01:41:32;98330.94;;;4.81;82.28
65546;BME280;52177;55.968;37.498;2023-03-26T01:42:09;98332.78;;;4.80;82.28
65546;BME280;52177;55.968;37.498;2023-03-26T01:42:47;98330.94;;;4.81;82.45
65546;BME280;52177;55.968;37.498;2023-03-26T01:43:38;98335.22;;;4.82;82.51
65546;BME280;52177;55.968;37.498;2023-03-26T01:45:00;98334.41;;;4.81;82.46
65546;BME280;52177;55.968;37.498;2023-03-26T01:45:35;98330.94;;;4.81;82.44
65546;BME280;52177;55.968;37.498;2023-03-26T01:46:10;98336.06;;;4.82;82.51
65546;BME280;52177;55.968;37.498;2023-03-26T01:46:43;98338.50;;;4.84;82.55
65546;BME280;52177;55.968;37.498;2023-03-26T01:47:15;98336.69;;;4.84;82.57
65546;BME280;52177;55.968;37.498;2023-03-26T01:47:47;98334.69;;;4.86;82.39
65546;BME280;52177;55.968;37.498;2023-03-26T01:48:18;98337.34;;;4.86;82.45
65546;BME280;52177;55.968;37.498;2023-03-26T01:48:49;98334.69;;;4.86;82.45
65546;BME280;52177;55.968;37.498;2023-03-26T01:49:20;98333.72;;;4.88;82.38
65546;BME280;52177;55.968;37.498;2023-03-26T01:49:50;98337.34;;;4.86;82.29
65546;BME280;52177;55.968;37.498;2023-03-26T01:50:21;98326.78;;;4.86;82.47
65546;BME280;52177;55.968;37.498;2023-03-26T01:50:51;98336.53;;;4.86;82.23
65546;BME280;52177;55.968;37.498;2023-03-26T01:51:30;98340.97;;;4.85;82.59
65546;BME280;52177;55.968;37.498;2023-03-26T01:52:04;98338.34;;;4.85;82.54
65546;BME280;52177;55.968;37.498;2023-03-26T01:52:35;98340.97;;;4.85;82.47
65546;BME280;52177;55.968;37.498;2023-03-26T01:53:06;98336.69;;;4.84;82.31
65546;BME280;52177;55.968;37.498;2023-03-26T01:53:46;98339.31;;;4.84;82.45
65546;BME280;52177;55.968;37.498;2023-03-26T01:54:19;98343.97;;;4.82;82.28
65546;BME280;52177;55.968;37.498;2023-03-26T01:54:54;98340.50;;;4.82;82.57
65546;BME280;52177;55.968;37.498;2023-03-26T01:55:34;98337.19;;;4.80;82.58
65546;BME280;52177;55.968;37.498;2023-03-26T01:56:20;98344.31;;;4.79;82.65
65546;BME280;52177;55.968;37.498;2023-03-26T01:57:01;98336.56;;;4.78;82.84
65546;BME280;52177;55.968;37.498;2023-03-26T01:59:05;98347.13;;;4.78;82.94
65546;BME280;52177;55.968;37.498;2023-03-26T01:59:51;98337.56;;;4.77;82.91
65546;BME280;52177;55.968;37.498;2023-03-26T02:00:38;98335.94;;;4.76;82.87
65546;BME280;52177;55.968;37.498;2023-03-26T02:02:14;98338.56;;;4.76;83.00
65546;BME280;52177;55.968;37.498;2023-03-26T02:02:58;98334.91;;;4.77;83.03
65546;BME280;52177;55.968;37.498;2023-03-26T02:03:35;98334.09;;;4.76;83.08
65546;BME280;52177;55.968;37.498;2023-03-26T02:04:25;98333.28;;;4.76;83.16
65546;BME280;52177;55.968;37.498;2023-03-26T02:05:16;98330.97;;;4.73;82.97
65546;BME280;52177;55.968;37.498;2023-03-26T02:05:57;98330.34;;;4.71;83.03
65546;BME280;52177;55.968;37.498;2023-03-26T02:06:46;98321.94;;;4.67;83.11
65546;BME280;52177;55.968;37.498;2023-03-26T02:08:23;98323.31;;;4.55;83.07
65546;BME280;52177;55.968;37.498;2023-03-26T02:09:06;98323.47;;;4.53;83.21
65546;BME280;52177;55.968;37.498;2023-03-26T02:09:42;98316.72;;;4.51;83.14
65546;BME280;52177;55.968;37.498;2023-03-26T02:10:33;98316.91;;;4.49;83.10
65546;BME280;52177;55.968;37.498;2023-03-26T02:11:06;98318.88;;;4.47;82.93
65546;BME280;52177;55.968;37.498;2023-03-26T02:11:40;98319.06;;;4.46;83.02
65546;BME280;52177;55.968;37.498;2023-03-26T02:12:13;98317.41;;;4.44;82.90
65546;BME280;52177;55.968;37.498;2023-03-26T02:12:44;98314.97;;;4.43;82.83
65546;BME280;52177;55.968;37.498;2023-03-26T02:13:15;98317.25;;;4.46;82.70
65546;BME280;52177;55.968;37.498;2023-03-26T02:13:46;98320.25;;;4.43;82.56
65546;BME280;52177;55.968;37.498;2023-03-26T02:14:16;98319.59;;;4.41;82.34
65546;BME280;52177;55.968;37.498;2023-03-26T02:14:47;98317.91;;;4.40;82.37
65546;BME280;52177;55.968;37.498;2023-03-26T02:15:18;98317.09;;;4.39;82.55
65546;BME280;52177;55.968;37.498;2023-03-26T02:15:57;98317.91;;;4.40;82.55
65546;BME280;52177;55.968;37.498;2023-03-26T02:16:28;98316.28;;;4.39;82.58
65546;BME280;52177;55.968;37.498;2023-03-26T02:16:58;98316.28;;;4.39;82.44
65546;BME280;52177;55.968;37.498;2023-03-26T02:17:29;98326.69;;;4.40;82.52
65546;BME280;52177;55.968;37.498;2023-03-26T02:18:01;98319.59;;;4.41;82.55
65546;BME280;52177;55.968;37.498;2023-03-26T02:18:33;98322.22;;;4.41;82.54
65546;BME280;52177;55.968;37.498;2023-03-26T02:19:08;98315.13;;;4.41;82.58
65546;BME280;52177;55.968;37.498;2023-03-26T02:19:44;98327.34;;;4.42;82.51
65546;BME280;52177;55.968;37.498;2023-03-26T02:20:15;98315.78;;;4.43;82.51
65546;BME280;52177;55.968;37.498;2023-03-26T02:20:47;98314.78;;;4.44;82.58
65546;BME280;52177;55.968;37.498;2023-03-26T02:21:20;98312.31;;;4.43;82.68
65546;BME280;52177;55.968;37.498;2023-03-26T02:21:50;98314.78;;;4.44;82.60
65546;BME280;52177;55.968;37.498;2023-03-26T02:22:21;98313.13;;;4.43;82.53
65546;BME280;52177;55.968;37.498;2023-03-26T02:22:58;98305.38;;;4.42;82.45
65546;BME280;52177;55.968;37.498;2023-03-26T02:23:30;98317.75;;;4.41;82.48
65546;BME280;52177;55.968;37.498;2023-03-26T02:24:04;98310.84;;;4.40;82.54
65546;BME280;52177;55.968;37.498;2023-03-26T02:24:36;98311.00;;;4.39;82.46
65546;BME280;52177;55.968;37.498;2023-03-26T02:25:09;98316.44;;;4.37;82.45
65546;BME280;52177;55.968;37.498;2023-03-26T02:25:39;98317.28;;;4.38;82.41
65546;BME280;52177;55.968;37.498;2023-03-26T02:26:14;98317.47;;;4.36;82.44
65546;BME280;52177;55.968;37.498;2023-03-26T02:26:45;98319.09;;;4.37;82.45
65546;BME280;52177;55.968;37.498;2023-03-26T02:27:15;98320.91;;;4.37;82.56
65546;BME280;52177;55.968;37.498;2023-03-26T02:27:48;98315.63;;;4.37;82.71
65546;BME280;52177;55.968;37.498;2023-03-26T02:28:19;98324.38;;;4.37;82.67
65546;BME280;52177;55.968;37.498;2023-03-26T02:28:49;98318.94;;;4.39;82.72
65546;BME280;52177;55.968;37.498;2023-03-26T02:29:20;98323.19;;;4.40;82.79
65546;BME280;52177;55.968;37.498;2023-03-26T02:29:51;98319.59;;;4.41;82.79
65546;BME280;52177;55.968;37.498;2023-03-26T02:30:24;98319.59;;;4.41;82.74
65546;BME280;52177;55.968;37.498;2023-03-26T02:30:54;98326.34;;;4.43;82.74
65546;BME280;52177;55.968;37.498;2023-03-26T02:31:26;98329.78;;;4.44;82.63
65546;BME280;52177;55.968;37.498;2023-03-26T02:31:57;98324.50;;;4.44;82.68
65546;BME280;52177;55.968;37.498;2023-03-26T02:32:27;98326.16;;;4.45;82.66
65546;BME280;52177;55.968;37.498;2023-03-26T02:32:57;98323.53;;;4.45;82.71
65546;BME280;52177;55.968;37.498;2023-03-26T02:33:29;98331.44;;;4.45;82.60
65546;BME280;52177;55.968;37.498;2023-03-26T02:34:00;98326.16;;;4.45;82.45
65546;BME280;52177;55.968;37.498;2023-03-26T02:34:31;98323.53;;;4.45;82.52
65546;BME280;52177;55.968;37.498;2023-03-26T02:35:02;98319.88;;;4.46;82.42
65546;BME280;52177;55.968;37.498;2023-03-26T02:35:34;98319.06;;;4.46;82.52
65546;BME280;52177;55.968;37.498;2023-03-26T02:36:05;98318.06;;;4.47;82.44
65546;BME280;52177;55.968;37.498;2023-03-26T02:36:37;98316.44;;;4.46;82.42
65546;BME280;52177;55.968;37.498;2023-03-26T02:37:08;98319.06;;;4.46;82.39
65546;BME280;52177;55.968;37.498;2023-03-26T02:37:39;98318.06;;;4.47;82.30
65546;BME280;52177;55.968;37.498;2023-03-26T02:38:09;98317.25;;;4.46;82.16
65546;BME280;52177;55.968;37.498;2023-03-26T02:38:43;98318.06;;;4.47;82.28
65546;BME280;52177;55.968;37.498;2023-03-26T02:39:13;98320.91;;;4.45;82.15
65546;BME280;52177;55.968;37.498;2023-03-26T02:39:44;98312.97;;;4.45;82.28
65546;BME280;52177;55.968;37.498;2023-03-26T02:40:14;98305.88;;;4.46;82.25
65546;BME280;52177;55.968;37.498;2023-03-26T02:40:45;98313.59;;;4.47;82.36
65546;BME280;52177;55.968;37.498;2023-03-26T02:41:16;98311.97;;;4.46;82.07
65546;BME280;52177;55.968;37.498;2023-03-26T02:41:46;98307.88;;;4.43;81.93
65546;BME280;52177;55.968;37.498;2023-03-26T02:42:16;98303.59;;;4.42;82.15
65546;BME280;52177;55.968;37.498;2023-03-26T02:42:47;98304.41;;;4.43;82.16
65546;BME280;52177;55.968;37.498;2023-03-26T02:43:18;98312.31;;;4.43;82.22
65546;BME280;52177;55.968;37.498;2023-03-26T02:43:48;98299.94;;;4.43;82.27
65546;BME280;52177;55.968;37.498;2023-03-26T02:44:18;98304.22;;;4.44;82.33
65546;BME280;52177;55.968;37.498;2023-03-26T02:44:49;98303.41;;;4.44;82.14
65546;BME280;52177;55.968;37.498;2023-03-26T02:45:19;98306.84;;;4.44;82.18
65546;BME280;52177;55.968;37.498;2023-03-26T02:45:50;98292.84;;;4.44;82.17
65546;BME280;52177;55.968;37.498;2023-03-26T02:46:20;98300.75;;;4.44;82.08
65546;BME280;52177;55.968;37.498;2023-03-26T02:46:51;98295.69;;;4.42;81.93
65546;BME280;52177;55.968;37.498;2023-03-26T02:47:21;98299.28;;;4.41;81.86
65546;BME280;52177;55.968;37.498;2023-03-26T02:47:52;98295.03;;;4.40;81.88
65546;BME280;52177;55.968;37.498;2023-03-26T02:48:22;98296.81;;;4.40;81.97
65546;BME280;52177;55.968;37.498;2023-03-26T02:48:52;98299.44;;;4.40;81.90
65546;BME280;52177;55.968;37.498;2023-03-26T02:49:23;98295.19;;;4.39;82.08
65546;BME280;52177;55.968;37.498;2023-03-26T02:49:54;98301.28;;;4.39;81.97
65546;BME280;52177;55.968;37.498;2023-03-26T02:50:24;98305.09;;;4.37;82.02
65546;BME280;52177;55.968;37.498;2023-03-26T02:50:54;98297.31;;;4.35;81.93
65546;BME280;52177;55.968;37.498;2023-03-26T02:51:25;98301.78;;;4.35;82.00
65546;BME280;52177;55.968;37.498;2023-03-26T02:51:56;98300.31;;;4.32;81.90
65546;BME280;52177;55.968;37.498;2023-03-26T02:52:26;98293.41;;;4.31;82.07
65546;BME280;52177;55.968;37.498;2023-03-26T02:52:57;98301.13;;;4.33;82.06
65546;BME280;52177;55.968;37.498;2023-03-26T02:53:27;98303.97;;;4.31;82.19
65546;BME280;52177;55.968;37.498;2023-03-26T02:54:01;98295.19;;;4.31;82.27
65546;BME280;52177;55.968;37.498;2023-03-26T02:54:34;98299.50;;;4.32;82.42
65546;BME280;52177;55.968;37.498;2023-03-26T02:55:06;98295.19;;;4.31;82.31
65546;BME280;52177;55.968;37.498;2023-03-26T02:55:36;98296.22;;;4.30;82.29
65546;BME280;52177;55.968;37.498;2023-03-26T02:56:07;98298.84;;;4.30;82.45
65546;BME280;52177;55.968;37.498;2023-03-26T02:56:38;98296.38;;;4.28;82.50
65546;BME280;52177;55.968;37.498;2023-03-26T02:57:08;98298.19;;;4.28;82.53
65546;BME280;52177;55.968;37.498;2023-03-26T02:57:38;98295.56;;;4.28;82.47
65546;BME280;52177;55.968;37.498;2023-03-26T02:58:09;98300.81;;;4.28;82.53
65546;BME280;52177;55.968;37.498;2023-03-26T02:58:41;98300.00;;;4.27;82.62
65546;BME280;52177;55.968;37.498;2023-03-26T02:59:11;98296.56;;;4.27;82.64
65546;BME280;52177;55.968;37.498;2023-03-26T02:59:42;98304.47;;;4.27;82.81
65546;BME280;52177;55.968;37.498;2023-03-26T03:00:15;98301.84;;;4.27;82.82
65546;BME280;52177;55.968;37.498;2023-03-26T03:00:46;98303.47;;;4.28;82.80
65546;BME280;52177;55.968;37.498;2023-03-26T03:01:19;98302.66;;;4.27;82.66
65546;BME280;52177;55.968;37.498;2023-03-26T03:01:50;98298.38;;;4.26;82.76
65546;BME280;52177;55.968;37.498;2023-03-26T03:02:20;98299.19;;;4.27;82.77
65546;BME280;52177;55.968;37.498;2023-03-26T03:02:53;98292.25;;;4.26;82.73
65546;BME280;52177;55.968;37.498;2023-03-26T03:03:27;98296.56;;;4.27;82.67
65546;BME280;52177;55.968;37.498;2023-03-26T03:03:57;98299.19;;;4.27;82.67
65546;BME280;52177;55.968;37.498;2023-03-26T03:04:28;98295.56;;;4.28;82.81
65546;BME280;52177;55.968;37.498;2023-03-26T03:04:58;98296.38;;;4.28;82.78
65546;BME280;52177;55.968;37.498;2023-03-26T03:05:31;98286.66;;;4.29;82.59
65546;BME280;52177;55.968;37.498;2023-03-26T03:06:02;98295.41;;;4.29;82.64
65546;BME280;52177;55.968;37.498;2023-03-26T03:06:32;98297.84;;;4.31;82.54
65546;BME280;52177;55.968;37.498;2023-03-26T03:07:02;98290.94;;;4.30;82.58
65546;BME280;52177;55.968;37.498;2023-03-26T03:07:33;98286.47;;;4.30;82.49
65546;BME280;52177;55.968;37.498;2023-03-26T03:08:06;98295.19;;;4.31;82.23
65546;BME280;52177;55.968;37.498;2023-03-26T03:08:37;98296.22;;;4.30;82.35
65546;BME280;52177;55.968;37.498;2023-03-26T03:09:07;98290.13;;;4.29;82.10
65546;BME280;52177;55.968;37.498;2023-03-26T03:09:38;98292.09;;;4.27;82.23